My Meet Scores
Keileen Fuentes, Kinetic Gymnastics - MyMeetScores.com
Top100 | Top Teams | Upcoming Meets | Completed Meets | Latest | Add Scores | Help| Support | Bookmark and Share

Keileen Fuentes, Kinetic Gymnastics
Personal Bests
LevelVault BarsBeamFloorAA
48.9509.125 9.1009.45036.625
69.1509.475 8.6509.25035.300
XS9.2509.500 9.6509.65037.300
Meet Scores
Date Meet Team Session Level Division Vault Bars Beam Floor AA
2021-04-10 CO Level 6/7 State Meet Kinetic Gymnastics 5 6 Sr A 8.775 9 8.800 7 8.025 12 9.250 7 34.850 10
2021-03-25 Active Athletics Hippity Hoppity 2021 Kinetic Gymnastics 07 6 All 9.150 3 8.950 3 8.650 7 8.550 9 35.300 6
2021-03-05 Live, Love Gymnastics Kinetic Gymnastics 13 6 JUNIOR 8.850 5 9.475 1 8.025 8 8.950 7 35.300 5
2021-01-15 Colorado Classic 2021 Kinetic Gymnastics 03 6 Junior 8.600 5T 8.500 6T 7.500 11T 9.075 10 33.675 9
2019-11-16 Colorado Level 4 State Kinetic Gymnastics 1 4 Jr. 3B 8.950 5 9.125 2 9.100 2T 9.450 1T 36.625 2
2019-10-18 2019 Pink Ribbon Invitational Kinetic Gymnastics 4 4 Jr C 8.700 2T 8.675 6 8.750 10 9.200 5 35.325 5
2019-10-05 2019 Judge's Cup NAWGJ Colorado Kinetic Gymnastics 3 4 Junior 8.550 7 8.100 11 8.525 9 8.925 7T 34.100 8
2019-09-27 2019 CGI Autumn Classic Kinetic Gymnastics 4 4 CH B 8.100 10 8.725 5 9.100 6 8.925 4 34.850 5
2019-09-14 2019 AGA Septemberfest Kinetic Gymnastics 3 4 All 8.650 6T 9.000 6 8.650 6 9.375 2 35.675 4
2018-11-16 2018 Colorado Level 4 State Meet Kinetic Gymnastics 5 4 J2 A 8.550 14 7.850 16 7.400 16 9.150 13 32.950 16
2018-10-27 Xtreme Altitude Fall Classic Kinetic Gymnastics 2 4 Child 8.150 14T 7.600 21 8.625 13T 8.675 15T 33.050 20
2018-10-20 2018 JET Pink Ribbon Invitational Kinetic Gymnastics 3 4 Jr B 8.400 5 7.100 15 8.225 14 8.675 13T 32.400 13
2018-10-06 2018 AGA Rocktoberfest Kinetic Gymnastics 2 4 Ch 8.200 14 7.250 18 7.675 18 8.800 11 31.925 18
2018-09-15 2018 Cgi Autumn Classic Kinetic Gymnastics 5 4 Jr B 8.000 10 6.700 12 8.075 11T 8.775 6 31.550 9
2018-08-25 2018 Summer Carnival Kinetic Gymnastics 1 4 Jr A 7.450 41T 0.000 65T 7.750 37T 8.675 13 23.875 63
2018-06-02 2018 Colorado Xcel Silver State Kinetic Gymnastics 6 XS Ch A 9.250 7 9.450 11T 9.125 12T 9.225 10 37.050 9
2018-05-04 Xtreme Altitude Xcel Xtravaganza Kinetic Gymnastics 5 XS Child 8.500 10T 9.500 8 9.650 3T 9.200 3T 36.850 4
2018-04-27 April Showers Xcel Meet Kinetic Gymnastics 2 XS Child 9.200 2T 9.100 10T 9.350 4 9.650 1 37.300 1
2018-04-07 Up In The Air Kinetic Gymnastics 3 XS Younger 8.600 32T 8.400 57 9.050 36T 9.150 16T 35.200 42T
2018-03-17 Mildred C. Burnham Invitational Kinetic Gymnastics 3 XS Jr A 8.300 67T 9.000 50T 7.700 66T 8.550 49T 33.550 64
Get your scores on
a t-shirt, pin, or hoodie